Joanna — D5EO2 — position and weather

sailwx.info

Track history (hours):
 
Tides and Currents Weather Stations Pressure Air Temp Water Temp Dewpoint Dewpoint Depression Visibility Wind Speed Wind Dir Waves Ship Positions

Joanna

Last reported at 2018-Apr-17 14:02 UTC. Time now 2018-Apr-25 02:53 UTC.
Position N 36°21' E 035°14'.

Length 184 m; draft 9.9 m.

Type: Ship (hazmat cat D). MMSI: 636016118.

Date/timePositionNaut miles runAvg speedWind from/ knotsBaromVisibWave heightAir tempDewpointWater temp
2018-Apr-17 14:02N 36°21' E 035°14'010.3
2018-Apr-17 13:59N 36°21' E 035°13'714.0
2018-Apr-17 13:30N 36°26' E 035°07'1614.0
2018-Apr-17 12:22N 36°34' E 034°50'814.0
2018-Apr-17 11:46N 36°39' E 034°42'412.0
2018-Apr-17 11:28N 36°42' E 034°40'511.4
2018-Apr-17 11:01N 36°47' E 034°38'181 6.1
2018-Apr-16 05:12N 35°36' E 031°12'415.2
2018-Apr-16 04:57N 35°35' E 031°08'715.1
2018-Apr-16 04:30N 35°34' E 030°59'715.1
2018-Apr-16 04:00N 35°33' E 030°50'715.0
2018-Apr-16 03:30N 35°32' E 030°41'814.9
2018-Apr-16 03:00N 35°31' E 030°32'914.6
2018-Apr-16 02:22N 35°30' E 030°21'  
2018-Apr-12 00:19N 35°50' E 014°33'2 5.4
2018-Apr-11 23:59N 35°48' E 014°34'1 1.7
2018-Apr-11 23:28N 35°48' E 014°35'1 2.6
2018-Apr-11 22:57N 35°48' E 014°37'0 0.5
2018-Apr-11 22:23N 35°48' E 014°37'0 0.8
2018-Apr-11 21:57N 35°48' E 014°38'0 0.9
2018-Apr-11 21:30N 35°48' E 014°38'1 1.0
2018-Apr-11 21:00N 35°48' E 014°39'1 2.0
2018-Apr-11 20:30N 35°48' E 014°40'3 1.3
2018-Apr-11 17:52N 35°51' E 014°42'0 0.0
2018-Apr-11 17:29N 35°51' E 014°42'0 0.1
2018-Apr-11 16:48N 35°51' E 014°42'0 0.0
2018-Apr-11 16:18N 35°51' E 014°42'0 0.0
2018-Apr-11 15:58N 35°51' E 014°42'0 0.0
2018-Apr-11 15:27N 35°51' E 014°42'0 0.0
2018-Apr-11 14:57N 35°51' E 014°42'0 0.1
2018-Apr-11 14:13N 35°51' E 014°42'0 0.1
2018-Apr-11 13:52N 35°51' E 014°43'0 0.0
2018-Apr-11 13:18N 35°51' E 014°43'0 0.2
2018-Apr-11 12:57N 35°51' E 014°43'2 3.3
2018-Apr-11 12:29N 35°50' E 014°41'4 8.3
2018-Apr-11 11:59N 35°47' E 014°37'3 7.3
2018-Apr-11 11:30N 35°45' E 014°34'5 7.3
2018-Apr-11 10:50N 35°43' E 014°29'2 6.7
2018-Apr-11 10:30N 35°43' E 014°26'4 7.6
2018-Apr-11 10:00N 35°44' E 014°21'4 7.9
2018-Apr-11 09:30N 35°46' E 014°17'3 6.2
2018-Apr-11 09:00N 35°48' E 014°14'3 6.9
2018-Apr-11 08:30N 35°50' E 014°10'3 6.9
2018-Apr-11 08:00N 35°51' E 014°07'4 7.1
2018-Apr-11 07:30N 35°54' E 014°03'4 7.5
2018-Apr-11 07:00N 35°56' E 013°60'4 7.4
2018-Apr-11 06:30N 35°58' E 013°56'4 7.2
2018-Apr-11 06:00N 36°01' E 013°53'3 6.6
2018-Apr-11 05:30N 36°03' E 013°50'4 7.3
2018-Apr-11 05:00N 36°05' E 013°46'4 8.0
2018-Apr-11 04:27N 36°08' E 013°42'3 7.4
2018-Apr-11 04:00N 36°10' E 013°39'3 6.0
2018-Apr-11 03:30N 36°12' E 013°36'3 6.7
2018-Apr-11 02:59N 36°14' E 013°32'4 7.4
2018-Apr-11 02:29N 36°16' E 013°29'3 6.7
2018-Apr-11 02:00N 36°18' E 013°25'3 6.6
2018-Apr-11 01:29N 36°20' E 013°22'4 7.6
2018-Apr-11 01:00N 36°22' E 013°18'20 8.3
2018-Apr-10 22:32N 36°35' E 012°58'0 3.4
2018-Apr-10 22:28N 36°35' E 012°58'36 7.9
2018-Apr-10 17:58N 36°58' E 012°24'7 7.5
2018-Apr-10 17:05N 37°03' E 012°19'0 3.3
2018-Apr-10 16:58N 37°03' E 012°19'4 7.9
2018-Apr-10 16:29N 37°07' E 012°16'4 7.5
2018-Apr-10 16:00N 37°10' E 012°13'5 7.6
2018-Apr-10 15:19N 37°14' E 012°10'2 6.7
2018-Apr-10 14:57N 37°16' E 012°08'4 7.9
2018-Apr-10 14:29N 37°19' E 012°06'4 8.0
2018-Apr-10 14:00N 37°22' E 012°03'5 8.8
2018-Apr-10 13:29N 37°26' E 012°00'4 7.6
2018-Apr-10 13:00N 37°29' E 011°58'4 8.7
2018-Apr-10 12:30N 37°33' E 011°55'5 8.8
2018-Apr-10 11:59N 37°37' E 011°51'4 8.7
2018-Apr-10 11:29N 37°40' E 011°49'5 8.5
2018-Apr-10 10:51N 37°45' E 011°45'4 8.4
2018-Apr-10 10:22N 37°48' E 011°42'3 7.3
2018-Apr-10 09:57N 37°51' E 011°40'321 6.8
2018-Apr-08 10:50N 42°58' E 009°37'310.4
2018-Apr-08 10:30N 43°02' E 009°37'5 9.9
2018-Apr-08 10:00N 43°07' E 009°38'510.9
2018-Apr-08 09:30N 43°10' E 009°43'611.4
2018-Apr-08 09:00N 43°14' E 009°49'611.9
2018-Apr-08 08:30N 43°18' E 009°55'611.9
2018-Apr-08 08:00N 43°22' E 010°02'611.9
2018-Apr-08 07:30N 43°26' E 010°07'611.4
2018-Apr-08 07:00N 43°31' E 010°12'5 9.1
2018-Apr-08 06:30N 43°33' E 010°17'2 2.9
2018-Apr-08 05:59N 43°34' E 010°18'0 0.0
2018-Apr-08 05:29N 43°34' E 010°18'0 0.0
2018-Apr-08 04:59N 43°34' E 010°18'0 0.0
2018-Apr-08 04:29N 43°34' E 010°18'0 0.0
2018-Apr-08 03:59N 43°34' E 010°18'0 0.0
2018-Apr-08 03:29N 43°34' E 010°18'0 0.0
2018-Apr-08 02:59N 43°34' E 010°18'0 0.0
2018-Apr-08 02:29N 43°34' E 010°18'0 0.0
2018-Apr-08 01:59N 43°34' E 010°18'0 0.0
2018-Apr-08 01:29N 43°34' E 010°18'0 0.0
2018-Apr-08 00:59N 43°34' E 010°18'0 0.0
2018-Apr-08 00:29N 43°34' E 010°18'0 0.0
2018-Apr-07 23:59N 43°34' E 010°18'0 0.0
2018-Apr-07 23:23N 43°34' E 010°18'0 0.0
2018-Apr-07 22:59N 43°34' E 010°18'0 0.0
2018-Apr-07 22:23N 43°34' E 010°18'0 0.0
2018-Apr-07 21:59N 43°34' E 010°18'0 0.0
2018-Apr-07 21:26N 43°34' E 010°18'0 0.0
2018-Apr-07 20:59N 43°34' E 010°18'0 0.0
2018-Apr-07 20:29N 43°34' E 010°18'0 0.0
2018-Apr-07 19:59N 43°34' E 010°18'0 0.0
2018-Apr-07 19:29N 43°34' E 010°18'0 0.0
2018-Apr-07 18:59N 43°34' E 010°18'0 0.0
2018-Apr-07 18:29N 43°34' E 010°18'0 0.0
2018-Apr-07 17:59N 43°34' E 010°18'0 0.0
2018-Apr-07 17:26N 43°34' E 010°18'0 0.0
2018-Apr-07 16:59N 43°34' E 010°18'0 0.0
2018-Apr-07 16:29N 43°34' E 010°18'0 0.0
2018-Apr-07 15:56N 43°34' E 010°18'0 0.0
2018-Apr-07 15:29N 43°34' E 010°18'0 0.0
2018-Apr-07 14:59N 43°34' E 010°18'0 0.0
2018-Apr-07 14:29N 43°34' E 010°18'  
Track history (hours):
 
Tides and Currents Weather Stations Pressure Air Temp Water Temp Dewpoint Dewpoint Depression Visibility Wind Speed Wind Dir Waves Ship Positions

Joanna

Last reported at 2018-Apr-17 14:02 UTC. Time now 2018-Apr-25 02:53 UTC.
Position N 36°21' E 035°14'.

Length 184 m; draft 9.9 m.

Type: Ship (hazmat cat D). MMSI: 636016118.

Date/timePositionNaut miles runAvg speedWind from/ knotsBaromVisibWave heightAir tempDewpointWater temp
2018-Apr-17 14:02N 36°21' E 035°14'010.3
2018-Apr-17 13:59N 36°21' E 035°13'714.0
2018-Apr-17 13:30N 36°26' E 035°07'1614.0
2018-Apr-17 12:22N 36°34' E 034°50'814.0
2018-Apr-17 11:46N 36°39' E 034°42'412.0
2018-Apr-17 11:28N 36°42' E 034°40'511.4
2018-Apr-17 11:01N 36°47' E 034°38'181 6.1
2018-Apr-16 05:12N 35°36' E 031°12'415.2
2018-Apr-16 04:57N 35°35' E 031°08'715.1
2018-Apr-16 04:30N 35°34' E 030°59'715.1
2018-Apr-16 04:00N 35°33' E 030°50'715.0
2018-Apr-16 03:30N 35°32' E 030°41'814.9
2018-Apr-16 03:00N 35°31' E 030°32'914.6
2018-Apr-16 02:22N 35°30' E 030°21'  
2018-Apr-12 00:19N 35°50' E 014°33'2 5.4
2018-Apr-11 23:59N 35°48' E 014°34'1 1.7
2018-Apr-11 23:28N 35°48' E 014°35'1 2.6
2018-Apr-11 22:57N 35°48' E 014°37'0 0.5
2018-Apr-11 22:23N 35°48' E 014°37'0 0.8
2018-Apr-11 21:57N 35°48' E 014°38'0 0.9
2018-Apr-11 21:30N 35°48' E 014°38'1 1.0
2018-Apr-11 21:00N 35°48' E 014°39'1 2.0
2018-Apr-11 20:30N 35°48' E 014°40'3 1.3
2018-Apr-11 17:52N 35°51' E 014°42'0 0.0
2018-Apr-11 17:29N 35°51' E 014°42'0 0.1
2018-Apr-11 16:48N 35°51' E 014°42'0 0.0
2018-Apr-11 16:18N 35°51' E 014°42'0 0.0
2018-Apr-11 15:58N 35°51' E 014°42'0 0.0
2018-Apr-11 15:27N 35°51' E 014°42'0 0.0
2018-Apr-11 14:57N 35°51' E 014°42'0 0.1
2018-Apr-11 14:13N 35°51' E 014°42'0 0.1
2018-Apr-11 13:52N 35°51' E 014°43'0 0.0
2018-Apr-11 13:18N 35°51' E 014°43'0 0.2
2018-Apr-11 12:57N 35°51' E 014°43'2 3.3
2018-Apr-11 12:29N 35°50' E 014°41'4 8.3
2018-Apr-11 11:59N 35°47' E 014°37'3 7.3
2018-Apr-11 11:30N 35°45' E 014°34'5 7.3
2018-Apr-11 10:50N 35°43' E 014°29'2 6.7
2018-Apr-11 10:30N 35°43' E 014°26'4 7.6
2018-Apr-11 10:00N 35°44' E 014°21'4 7.9
2018-Apr-11 09:30N 35°46' E 014°17'3 6.2
2018-Apr-11 09:00N 35°48' E 014°14'3 6.9
2018-Apr-11 08:30N 35°50' E 014°10'3 6.9
2018-Apr-11 08:00N 35°51' E 014°07'4 7.1
2018-Apr-11 07:30N 35°54' E 014°03'4 7.5
2018-Apr-11 07:00N 35°56' E 013°60'4 7.4
2018-Apr-11 06:30N 35°58' E 013°56'4 7.2
2018-Apr-11 06:00N 36°01' E 013°53'3 6.6
2018-Apr-11 05:30N 36°03' E 013°50'4 7.3
2018-Apr-11 05:00N 36°05' E 013°46'4 8.0
2018-Apr-11 04:27N 36°08' E 013°42'3 7.4
2018-Apr-11 04:00N 36°10' E 013°39'3 6.0
2018-Apr-11 03:30N 36°12' E 013°36'3 6.7
2018-Apr-11 02:59N 36°14' E 013°32'4 7.4
2018-Apr-11 02:29N 36°16' E 013°29'3 6.7
2018-Apr-11 02:00N 36°18' E 013°25'3 6.6
2018-Apr-11 01:29N 36°20' E 013°22'4 7.6
2018-Apr-11 01:00N 36°22' E 013°18'20 8.3
2018-Apr-10 22:32N 36°35' E 012°58'0 3.4
2018-Apr-10 22:28N 36°35' E 012°58'36 7.9
2018-Apr-10 17:58N 36°58' E 012°24'7 7.5
2018-Apr-10 17:05N 37°03' E 012°19'0 3.3
2018-Apr-10 16:58N 37°03' E 012°19'4 7.9
2018-Apr-10 16:29N 37°07' E 012°16'4 7.5
2018-Apr-10 16:00N 37°10' E 012°13'5 7.6
2018-Apr-10 15:19N 37°14' E 012°10'2 6.7
2018-Apr-10 14:57N 37°16' E 012°08'4 7.9
2018-Apr-10 14:29N 37°19' E 012°06'4 8.0
2018-Apr-10 14:00N 37°22' E 012°03'5 8.8
2018-Apr-10 13:29N 37°26' E 012°00'4 7.6
2018-Apr-10 13:00N 37°29' E 011°58'4 8.7
2018-Apr-10 12:30N 37°33' E 011°55'5 8.8
2018-Apr-10 11:59N 37°37' E 011°51'4 8.7
2018-Apr-10 11:29N 37°40' E 011°49'5 8.5
2018-Apr-10 10:51N 37°45' E 011°45'4 8.4
2018-Apr-10 10:22N 37°48' E 011°42'3 7.3
2018-Apr-10 09:57N 37°51' E 011°40'321 6.8
2018-Apr-08 10:50N 42°58' E 009°37'310.4
2018-Apr-08 10:30N 43°02' E 009°37'5 9.9
2018-Apr-08 10:00N 43°07' E 009°38'510.9
2018-Apr-08 09:30N 43°10' E 009°43'611.4
2018-Apr-08 09:00N 43°14' E 009°49'611.9
2018-Apr-08 08:30N 43°18' E 009°55'611.9
2018-Apr-08 08:00N 43°22' E 010°02'611.9
2018-Apr-08 07:30N 43°26' E 010°07'611.4
2018-Apr-08 07:00N 43°31' E 010°12'5 9.1
2018-Apr-08 06:30N 43°33' E 010°17'2 2.9
2018-Apr-08 05:59N 43°34' E 010°18'0 0.0
2018-Apr-08 05:29N 43°34' E 010°18'0 0.0
2018-Apr-08 04:59N 43°34' E 010°18'0 0.0
2018-Apr-08 04:29N 43°34' E 010°18'0 0.0
2018-Apr-08 03:59N 43°34' E 010°18'0 0.0
2018-Apr-08 03:29N 43°34' E 010°18'0 0.0
2018-Apr-08 02:59N 43°34' E 010°18'0 0.0
2018-Apr-08 02:29N 43°34' E 010°18'0 0.0
2018-Apr-08 01:59N 43°34' E 010°18'0 0.0
2018-Apr-08 01:29N 43°34' E 010°18'0 0.0
2018-Apr-08 00:59N 43°34' E 010°18'0 0.0
2018-Apr-08 00:29N 43°34' E 010°18'0 0.0
2018-Apr-07 23:59N 43°34' E 010°18'0 0.0
2018-Apr-07 23:23N 43°34' E 010°18'0 0.0
2018-Apr-07 22:59N 43°34' E 010°18'0 0.0
2018-Apr-07 22:23N 43°34' E 010°18'0 0.0
2018-Apr-07 21:59N 43°34' E 010°18'0 0.0
2018-Apr-07 21:26N 43°34' E 010°18'0 0.0
2018-Apr-07 20:59N 43°34' E 010°18'0 0.0
2018-Apr-07 20:29N 43°34' E 010°18'0 0.0
2018-Apr-07 19:59N 43°34' E 010°18'0 0.0
2018-Apr-07 19:29N 43°34' E 010°18'0 0.0
2018-Apr-07 18:59N 43°34' E 010°18'0 0.0
2018-Apr-07 18:29N 43°34' E 010°18'0 0.0
2018-Apr-07 17:59N 43°34' E 010°18'0 0.0
2018-Apr-07 17:26N 43°34' E 010°18'0 0.0
2018-Apr-07 16:59N 43°34' E 010°18'0 0.0
2018-Apr-07 16:29N 43°34' E 010°18'0 0.0
2018-Apr-07 15:56N 43°34' E 010°18'0 0.0
2018-Apr-07 15:29N 43°34' E 010°18'0 0.0
2018-Apr-07 14:59N 43°34' E 010°18'0 0.0
2018-Apr-07 14:29N 43°34' E 010°18'  

Dump ship's entire track history